createdAt,value
2018-03-02T00:01:45.516Z,99.90
2018-03-02T00:04:15.903Z,99.60
2018-03-02T00:06:45.590Z,99.60
2018-03-02T00:09:15.220Z,99.40
2018-03-02T00:11:44.828Z,99.90
2018-03-02T00:14:14.399Z,99.50
2018-03-02T00:16:43.999Z,99.70
2018-03-02T00:19:13.531Z,99.90
2018-03-02T00:21:43.122Z,99.20
2018-03-02T00:24:12.676Z,99.10
2018-03-02T00:26:42.601Z,99.30
2018-03-02T00:29:12.245Z,99.20
2018-03-02T00:31:41.820Z,99.90
2018-03-02T00:34:11.344Z,99.70
2018-03-02T00:36:41.101Z,99.80
2018-03-02T00:39:11.462Z,99.90
2018-03-02T00:41:41.036Z,99.90
2018-03-02T00:44:11.366Z,99.90
2018-03-02T00:46:41.777Z,99.90
2018-03-02T00:49:11.330Z,99.90
2018-03-02T00:51:41.714Z,99.90
2018-03-02T00:54:12.038Z,99.90
2018-03-02T00:56:42.363Z,99.90
2018-03-02T00:59:12.688Z,99.90
2018-03-02T01:01:42.291Z,99.90
2018-03-02T01:04:11.893Z,99.90
2018-03-02T01:06:41.462Z,99.90
2018-03-02T01:09:11.050Z,99.90
2018-03-02T01:11:40.559Z,99.90
2018-03-02T01:14:10.062Z,99.90
2018-03-02T01:16:39.563Z,99.90
2018-03-02T01:19:09.221Z,99.90
2018-03-02T01:21:38.864Z,99.90
2018-03-02T01:24:08.437Z,99.80
2018-03-02T01:26:38.047Z,99.90
2018-03-02T01:29:07.721Z,99.90
2018-03-02T01:31:37.352Z,99.90
2018-03-02T01:34:06.998Z,99.80
2018-03-02T01:36:36.591Z,99.60
2018-03-02T01:39:06.940Z,99.90
2018-03-02T01:41:36.603Z,99.90
2018-03-02T01:44:06.463Z,99.50
2018-03-02T01:46:36.021Z,99.90
2018-03-02T01:49:05.637Z,99.30
2018-03-02T01:51:50.061Z,99.20
2018-03-02T01:54:19.564Z,99.80
2018-03-02T01:56:49.181Z,98.80
2018-03-02T01:59:18.732Z,98.90
2018-03-02T02:01:48.375Z,99.00
2018-03-02T02:04:17.987Z,99.00
2018-03-02T02:06:47.535Z,99.10
2018-03-02T02:09:17.192Z,99.30
2018-03-02T02:11:47.722Z,99.50
2018-03-02T02:14:17.394Z,99.60
2018-03-02T02:16:46.993Z,99.70
2018-03-02T02:19:16.650Z,99.50
2018-03-02T02:21:46.241Z,99.80
2018-03-02T02:24:16.303Z,99.80
2018-03-02T02:26:45.939Z,99.50
2018-03-02T02:29:15.513Z,99.70
2018-03-02T02:31:45.032Z,99.70
2018-03-02T02:34:15.163Z,99.80
2018-03-02T02:36:45.016Z,99.60
2018-03-02T02:39:15.265Z,99.70
2018-03-02T02:41:44.888Z,99.80
2018-03-02T02:44:14.754Z,99.80
2018-03-02T02:46:44.243Z,99.50
2018-03-02T02:49:13.828Z,99.90
2018-03-02T02:51:44.155Z,99.50
2018-03-02T02:54:13.719Z,99.50
2018-03-02T02:56:43.311Z,99.60
2018-03-02T02:59:13.616Z,99.70
2018-03-02T03:01:43.950Z,99.90
2018-03-02T03:04:13.466Z,99.90
2018-03-02T03:06:42.937Z,99.80
2018-03-02T03:09:12.471Z,99.90
2018-03-02T03:11:42.885Z,99.90
2018-03-02T03:14:12.609Z,99.80
2018-03-02T03:16:42.106Z,99.60
2018-03-02T03:19:13.373Z,99.60
2018-03-02T03:21:43.027Z,99.70
2018-03-02T03:24:13.556Z,99.80
2018-03-02T03:26:43.176Z,99.20
2018-03-02T03:29:13.498Z,99.10
2018-03-02T03:31:43.835Z,99.20
2018-03-02T03:34:13.384Z,99.90
2018-03-02T03:36:43.933Z,99.40
2018-03-02T03:39:13.570Z,99.50
2018-03-02T03:41:44.886Z,99.10
2018-03-02T03:44:14.461Z,99.10
2018-03-02T03:46:44.031Z,99.00
2018-03-02T03:49:13.577Z,97.70
2018-03-02T03:51:43.852Z,97.80
2018-03-02T03:54:14.604Z,97.90
2018-03-02T03:56:51.642Z,97.40
2018-03-02T04:03:00.245Z,97.90
2018-03-02T04:05:30.405Z,99.20
2018-03-02T04:07:59.984Z,99.50
2018-03-02T04:10:30.810Z,99.90
2018-03-02T04:13:00.441Z,99.90
2018-03-02T04:15:36.560Z,99.90
2018-03-02T04:18:15.467Z,99.90
2018-03-02T04:20:53.440Z,99.90
2018-03-02T04:26:44.214Z,99.90
2018-03-02T04:29:16.105Z,99.90
2018-03-02T04:31:53.330Z,99.90
2018-03-02T04:34:25.815Z,99.90
2018-03-02T04:37:00.387Z,99.90
2018-03-02T04:39:30.390Z,99.90
2018-03-02T04:41:59.952Z,99.90
2018-03-02T04:44:30.969Z,99.90
2018-03-02T04:47:02.142Z,99.90
2018-03-02T04:52:39.609Z,99.90
2018-03-02T04:55:12.791Z,99.90
2018-03-02T05:01:18.326Z,99.40
2018-03-02T05:03:58.208Z,98.70
2018-03-02T05:06:30.981Z,98.80
2018-03-02T05:09:01.402Z,98.80
2018-03-02T05:11:35.816Z,99.00
2018-03-02T05:14:09.997Z,99.30
2018-03-02T05:16:39.855Z,99.50
2018-03-02T05:19:09.451Z,99.90
2018-03-02T05:21:39.132Z,99.90
2018-03-02T05:24:09.472Z,99.90
2018-03-02T05:26:39.927Z,99.90
2018-03-02T05:29:11.815Z,99.90
2018-03-02T05:31:46.180Z,99.90
2018-03-02T05:34:18.305Z,98.80
2018-03-02T05:36:49.488Z,98.80
2018-03-02T05:39:19.234Z,98.40
2018-03-02T05:41:49.575Z,99.00
2018-03-02T05:44:19.057Z,99.10
2018-03-02T05:46:48.609Z,99.90
2018-03-02T05:49:18.100Z,99.90
2018-03-02T05:51:47.597Z,99.90
2018-03-02T05:54:17.160Z,99.90
2018-03-02T05:56:47.923Z,99.50
2018-03-02T05:59:19.189Z,99.50
2018-03-02T06:01:48.750Z,99.50
2018-03-02T06:04:18.408Z,99.30
2018-03-02T06:06:48.012Z,99.40
2018-03-02T06:09:17.566Z,99.40
2018-03-02T06:11:47.889Z,99.90
2018-03-02T06:14:18.158Z,99.40
2018-03-02T06:16:48.905Z,99.20
2018-03-02T06:19:18.585Z,99.30
2018-03-02T06:21:49.000Z,99.60
2018-03-02T06:24:18.581Z,98.70
2018-03-02T06:26:48.083Z,98.40
2018-03-02T06:29:18.551Z,98.80
2018-03-02T06:31:48.061Z,98.60
2018-03-02T06:34:17.673Z,99.50
2018-03-02T06:36:47.172Z,98.80
2018-03-02T06:39:17.861Z,99.90
2018-03-02T06:41:48.269Z,99.90
2018-03-02T06:44:17.976Z,99.90
2018-03-02T06:46:47.505Z,99.90
2018-03-02T06:49:17.029Z,99.90
2018-03-02T06:51:46.641Z,99.90
2018-03-02T06:54:16.198Z,99.90
2018-03-02T06:56:45.730Z,99.90
2018-03-02T06:59:17.965Z,99.90
2018-03-02T07:01:47.430Z,99.90
2018-03-02T07:04:16.980Z,99.90
2018-03-02T07:06:46.440Z,99.90
2018-03-02T07:09:15.983Z,99.90
2018-03-02T07:11:45.512Z,99.90
2018-03-02T07:14:15.087Z,99.90
2018-03-02T07:16:44.551Z,99.90
2018-03-02T07:19:14.820Z,99.90
2018-03-02T07:21:45.764Z,99.90
2018-03-02T07:24:15.410Z,99.90
2018-03-02T07:26:45.691Z,99.90
2018-03-02T07:29:15.258Z,99.90
2018-03-02T07:31:44.778Z,99.90
2018-03-02T07:34:14.329Z,99.90
2018-03-02T07:36:43.819Z,99.90
2018-03-02T07:39:13.422Z,99.90
2018-03-02T07:41:43.158Z,99.90
2018-03-02T07:44:13.884Z,99.90
2018-03-02T07:46:43.953Z,99.90
2018-03-02T07:49:13.547Z,99.90
2018-03-02T07:51:43.883Z,99.90
2018-03-02T07:54:14.216Z,99.90
2018-03-02T07:56:44.461Z,99.90
2018-03-02T07:59:15.829Z,99.90
2018-03-02T08:01:45.698Z,99.90
2018-03-02T08:04:15.261Z,99.90
2018-03-02T08:06:44.754Z,99.90
2018-03-02T08:09:15.379Z,99.90
2018-03-02T08:11:44.890Z,99.90
2018-03-02T08:14:15.251Z,99.90
2018-03-02T08:16:45.510Z,99.90
2018-03-02T08:19:14.987Z,99.90
2018-03-02T08:21:44.683Z,99.90
2018-03-02T08:24:14.198Z,99.90
2018-03-02T08:26:43.700Z,99.90
2018-03-02T08:29:17.313Z,99.90
2018-03-02T08:31:46.888Z,99.90
2018-03-02T08:34:16.649Z,99.90
2018-03-02T08:36:47.954Z,99.90
2018-03-02T08:39:17.438Z,99.90
2018-03-02T08:41:47.147Z,99.90
2018-03-02T08:44:16.801Z,99.90
2018-03-02T08:46:47.094Z,99.90
2018-03-02T09:01:32.290Z,99.90
2018-03-02T09:04:03.583Z,99.90
2018-03-02T09:06:33.054Z,99.90
2018-03-02T09:09:02.795Z,99.90
2018-03-02T09:11:32.357Z,99.90
2018-03-02T09:14:02.022Z,99.90
2018-03-02T09:16:31.534Z,99.90
2018-03-02T09:19:02.323Z,99.90
2018-03-02T09:21:32.048Z,99.90
2018-03-02T09:24:01.638Z,99.90
2018-03-02T09:26:31.161Z,99.90
2018-03-02T09:29:00.620Z,99.90
2018-03-02T09:31:30.291Z,99.90
2018-03-02T09:34:02.626Z,99.90
2018-03-02T09:36:32.422Z,99.90
2018-03-02T09:39:02.454Z,99.90
2018-03-02T09:41:32.608Z,99.90
2018-03-02T09:44:02.820Z,99.90
2018-03-02T09:46:32.502Z,99.90
2018-03-02T09:49:02.284Z,99.90
2018-03-02T09:51:32.258Z,99.90
2018-03-02T09:54:02.497Z,99.90
2018-03-02T09:56:33.075Z,99.90
2018-03-02T09:59:02.734Z,99.90
2018-03-02T10:01:33.190Z,99.90
2018-03-02T10:04:03.624Z,99.90
2018-03-02T10:06:34.391Z,99.90
2018-03-02T10:09:04.966Z,99.90
2018-03-02T10:11:34.631Z,99.90
2018-03-02T10:14:13.178Z,99.90
2018-03-02T10:16:42.646Z,99.90
2018-03-02T10:19:12.350Z,99.90
2018-03-02T10:24:40.226Z,99.90
2018-03-02T10:27:09.976Z,99.90
2018-03-02T10:29:39.722Z,99.90
2018-03-02T10:32:10.017Z,99.90
2018-03-02T10:34:39.613Z,99.90
2018-03-02T10:37:09.341Z,99.90
2018-03-02T10:39:40.202Z,99.90
2018-03-02T10:42:09.984Z,99.90
2018-03-02T10:44:40.292Z,99.60
2018-03-02T10:47:18.174Z,97.70
2018-03-02T10:49:49.103Z,94.80
2018-03-02T10:52:23.830Z,89.50
2018-03-02T10:54:53.577Z,87.40
2018-03-02T10:57:23.176Z,88.10
2018-03-02T10:59:52.751Z,83.50
2018-03-02T11:02:22.385Z,85.40
2018-03-02T11:04:57.606Z,84.40
2018-03-02T11:07:27.214Z,78.90
2018-03-02T11:09:57.428Z,78.70
2018-03-02T11:12:27.826Z,77.00
2018-03-02T11:14:59.598Z,74.60
2018-03-02T11:17:29.961Z,74.10
2018-03-02T11:19:59.707Z,74.10
2018-03-02T11:22:29.395Z,73.10
2018-03-02T11:24:59.703Z,74.90
2018-03-02T11:27:38.313Z,72.20
2018-03-02T11:30:09.091Z,73.60
2018-03-02T11:32:39.364Z,75.60
2018-03-02T11:35:09.217Z,75.60
2018-03-02T11:37:38.699Z,74.60
2018-03-02T11:40:09.655Z,74.20
2018-03-02T11:42:40.027Z,74.70
2018-03-02T11:45:09.704Z,74.70
2018-03-02T11:47:39.167Z,73.30
2018-03-02T11:50:09.770Z,71.10
2018-03-02T11:52:39.390Z,71.10
2018-03-02T12:07:40.243Z,67.40
2018-03-02T12:10:10.083Z,66.20
2018-03-02T12:12:40.027Z,69.70
2018-03-02T12:15:10.358Z,68.50
2018-03-02T12:17:40.053Z,68.50
2018-03-02T12:20:10.362Z,63.50
2018-03-02T12:22:39.955Z,63.40
2018-03-02T12:25:09.439Z,64.60
2018-03-02T12:27:39.038Z,64.30
2018-03-02T12:30:09.749Z,63.90
2018-03-02T12:32:39.278Z,63.90
2018-03-02T12:35:08.818Z,62.10
2018-03-02T12:37:39.923Z,60.80
2018-03-02T12:40:09.944Z,60.80
2018-03-02T12:42:39.437Z,61.80
2018-03-02T12:45:09.068Z,62.30
2018-03-02T12:47:38.810Z,61.80
2018-03-02T12:50:08.282Z,61.60
2018-03-02T12:52:38.708Z,59.80
2018-03-02T12:55:08.887Z,59.80
2018-03-02T12:57:39.470Z,58.20
2018-03-02T13:00:10.581Z,58.60
2018-03-02T13:02:40.420Z,58.60
2018-03-02T13:05:10.173Z,59.50
2018-03-02T13:10:53.860Z,56.40
2018-03-02T13:13:23.372Z,56.40
2018-03-02T13:15:52.919Z,56.40
2018-03-02T13:18:41.033Z,56.10
2018-03-02T13:21:10.539Z,56.10
2018-03-02T13:23:40.252Z,56.70
2018-03-02T13:26:09.943Z,56.40
2018-03-02T13:31:26.275Z,59.20
2018-03-02T13:34:13.940Z,59.30
2018-03-02T13:36:44.260Z,71.00
2018-03-02T13:39:15.123Z,71.10
2018-03-02T13:42:02.526Z,73.40
2018-03-02T13:44:32.551Z,75.50
2018-03-02T13:47:02.584Z,72.50
2018-03-02T13:49:50.423Z,73.30
2018-03-02T13:52:20.079Z,71.20
2018-03-02T13:54:51.001Z,70.00
2018-03-02T13:57:38.285Z,70.10
2018-03-02T14:00:07.997Z,66.60
2018-03-02T14:02:55.336Z,64.90
2018-03-02T14:05:24.953Z,66.10
2018-03-02T14:07:54.520Z,66.00
2018-03-02T14:10:24.356Z,66.40
2018-03-02T14:12:54.155Z,66.20
2018-03-02T14:15:23.982Z,66.30
2018-03-02T14:17:54.820Z,65.80
2018-03-02T14:20:25.353Z,63.70
2018-03-02T14:22:55.056Z,63.70
2018-03-02T14:25:25.427Z,63.50
2018-03-02T14:27:57.053Z,64.20
2018-03-02T14:30:26.670Z,64.10
2018-03-02T14:32:57.883Z,66.20
2018-03-02T14:35:29.033Z,66.20
2018-03-02T14:37:58.623Z,66.30
2018-03-02T14:40:30.968Z,65.30
2018-03-02T14:43:00.655Z,66.00
2018-03-02T14:45:37.465Z,60.70
2018-03-02T14:48:08.597Z,59.60
2018-03-02T14:50:39.459Z,59.60
2018-03-02T14:53:11.337Z,58.40
2018-03-02T14:55:42.503Z,59.90
2018-03-02T14:58:25.440Z,59.80
2018-03-02T15:00:57.581Z,61.50
2018-03-02T15:03:29.070Z,66.50
2018-03-02T15:05:59.510Z,68.10
2018-03-02T15:08:29.381Z,68.20
2018-03-02T15:10:59.095Z,68.10
2018-03-02T15:13:28.906Z,66.80
2018-03-02T15:15:58.938Z,66.10
2018-03-02T15:18:29.138Z,65.00
2018-03-02T15:20:58.769Z,58.80
2018-03-02T15:23:28.489Z,58.30
2018-03-02T15:25:58.481Z,58.40
2018-03-02T15:28:29.957Z,55.20
2018-03-02T15:31:00.970Z,56.20
2018-03-02T15:33:42.941Z,56.90
2018-03-02T15:36:12.678Z,56.90
2018-03-02T15:38:51.673Z,56.30
2018-03-02T15:41:23.240Z,56.00
2018-03-02T15:43:52.802Z,56.20
2018-03-02T15:46:22.500Z,56.50
2018-03-02T15:48:52.135Z,57.00
2018-03-02T15:51:31.757Z,57.70
2018-03-02T15:54:01.306Z,57.60
2018-03-02T15:56:31.860Z,57.80
2018-03-02T15:59:02.351Z,58.60
2018-03-02T16:01:33.028Z,57.70
2018-03-02T16:04:03.558Z,56.70
2018-03-02T16:06:33.958Z,56.20
2018-03-02T16:09:04.687Z,56.10
2018-03-02T16:11:34.344Z,57.50
2018-03-02T16:14:04.782Z,62.40
2018-03-02T16:16:35.843Z,62.40
2018-03-02T16:19:06.040Z,66.80
2018-03-02T16:21:36.195Z,70.80
2018-03-02T16:24:05.974Z,70.40
2018-03-02T16:26:35.769Z,71.70
2018-03-02T16:29:06.642Z,72.90
2018-03-02T16:31:36.277Z,73.20
2018-03-02T16:34:05.983Z,75.90
2018-03-02T16:36:36.904Z,77.30
2018-03-02T16:39:07.050Z,77.30
2018-03-02T16:41:38.268Z,78.70
2018-03-02T16:44:13.337Z,78.60
2018-03-02T16:46:43.897Z,80.30
2018-03-02T16:49:13.464Z,80.30
2018-03-02T16:51:48.908Z,80.70
2018-03-02T16:54:18.640Z,80.20
2018-03-02T16:56:48.366Z,80.20
2018-03-02T16:59:18.087Z,80.10
2018-03-02T17:01:47.629Z,80.10
2018-03-02T17:04:17.142Z,81.80
2018-03-02T17:06:47.160Z,83.50
2018-03-02T17:09:16.919Z,85.20
2018-03-02T17:11:46.644Z,85.50
2018-03-02T17:14:16.360Z,86.70
2018-03-02T17:16:46.156Z,87.80
2018-03-02T17:19:16.661Z,88.40
2018-03-02T17:21:55.174Z,88.30
2018-03-02T17:24:25.016Z,90.20
2018-03-02T17:26:55.242Z,92.00
2018-03-02T17:29:26.898Z,90.80
2018-03-02T17:31:58.617Z,90.70
2018-03-02T17:34:38.373Z,91.40
2018-03-02T17:37:08.289Z,90.60
2018-03-02T17:39:41.788Z,88.80
2018-03-02T17:42:11.705Z,88.80
2018-03-02T17:44:41.884Z,90.60
2018-03-02T17:47:12.196Z,89.40
2018-03-02T17:49:46.635Z,89.80
2018-03-02T17:52:17.323Z,89.60
2018-03-02T17:54:48.193Z,90.60
2018-03-02T17:57:18.072Z,90.50
2018-03-02T17:59:49.917Z,89.30
2018-03-02T18:02:23.160Z,89.80
2018-03-02T18:04:54.163Z,90.20
2018-03-02T18:07:25.795Z,90.20
2018-03-02T18:10:01.442Z,91.20
2018-03-02T18:12:32.854Z,90.70
2018-03-02T18:15:02.738Z,91.30
2018-03-02T18:17:34.372Z,91.50
2018-03-02T18:20:04.495Z,92.00
2018-03-02T18:22:34.356Z,92.40
2018-03-02T18:25:19.750Z,93.20
2018-03-02T18:27:51.465Z,92.60
2018-03-02T18:30:24.090Z,92.40
2018-03-02T18:32:54.708Z,92.10
2018-03-02T18:35:30.194Z,92.20
2018-03-02T18:38:01.036Z,90.50
2018-03-02T18:40:32.639Z,91.20
2018-03-02T18:43:08.248Z,92.00
2018-03-02T18:45:39.179Z,92.30
2018-03-02T18:48:08.816Z,90.30
2018-03-02T18:50:41.039Z,89.80
2018-03-02T18:53:13.114Z,89.00
2018-03-02T18:55:44.619Z,89.50
2018-03-02T18:58:14.935Z,89.20
2018-03-02T19:00:46.296Z,89.20
2018-03-02T19:03:16.510Z,90.00
2018-03-02T19:05:46.546Z,90.00
2018-03-02T19:08:16.786Z,89.50
2018-03-02T19:10:47.189Z,88.20
2018-03-02T19:13:21.320Z,89.70
2018-03-02T19:15:51.732Z,88.80
2018-03-02T19:18:22.408Z,90.30
2018-03-02T19:20:53.514Z,93.40
2018-03-02T19:23:24.191Z,94.90
2018-03-02T19:25:54.492Z,94.90
2018-03-02T19:28:24.591Z,96.00
2018-03-02T19:30:54.362Z,96.30
2018-03-02T19:33:24.104Z,94.70
2018-03-02T19:36:21.318Z,94.20
2018-03-02T19:38:54.043Z,92.60
2018-03-02T19:41:24.483Z,92.30
2018-03-02T19:43:56.111Z,92.70
2018-03-02T19:46:32.168Z,90.70
2018-03-02T19:49:04.250Z,89.90
2018-03-02T19:51:35.269Z,89.00
2018-03-02T19:54:07.530Z,88.90
2018-03-02T19:56:38.541Z,88.60
2018-03-02T19:59:08.650Z,87.60
2018-03-02T20:01:40.376Z,87.50
2018-03-02T20:04:14.208Z,87.10
2018-03-02T20:06:53.904Z,88.10
2018-03-02T20:09:27.789Z,88.00
2018-03-02T20:12:03.560Z,87.90
2018-03-02T20:14:34.530Z,86.40
2018-03-02T20:17:10.022Z,85.30
2018-03-02T20:19:42.579Z,84.90
2018-03-02T20:22:14.260Z,85.30
2018-03-02T20:24:44.425Z,84.30
2018-03-02T20:27:15.044Z,84.10
2018-03-02T20:29:48.198Z,84.30
2018-03-02T20:32:22.433Z,84.50
2018-03-02T20:34:53.210Z,83.80
2018-03-02T20:37:24.682Z,83.60
